sensor_id;sensor_type;location;lat;lon;timestamp;pressure;altitude;pressure_sealevel;temperature;humidity
9746;BME280;4912;50.836;12.958;2022-09-09T00:00:52;97466.41;;;17.42;78.02
9746;BME280;4912;50.836;12.958;2022-09-09T00:03:26;97469.16;;;17.48;78.07
9746;BME280;4912;50.836;12.958;2022-09-09T00:06:06;97462.63;;;17.40;77.72
9746;BME280;4912;50.836;12.958;2022-09-09T00:08:56;97458.03;;;17.42;77.65
9746;BME280;4912;50.836;12.958;2022-09-09T00:11:36;97458.84;;;17.37;77.37
9746;BME280;4912;50.836;12.958;2022-09-09T00:14:18;97452.72;;;17.39;76.99
9746;BME280;4912;50.836;12.958;2022-09-09T00:17:01;97457.78;;;17.40;77.22
9746;BME280;4912;50.836;12.958;2022-09-09T00:19:40;97450.66;;;17.39;76.84
9746;BME280;4912;50.836;12.958;2022-09-09T00:22:17;97451.16;;;17.43;76.73
9746;BME280;4912;50.836;12.958;2022-09-09T00:24:52;97453.72;;;17.41;76.55
9746;BME280;4912;50.836;12.958;2022-09-09T00:27:28;97443.03;;;17.40;76.33
9746;BME280;4912;50.836;12.958;2022-09-09T00:30:13;97441.47;;;17.44;80.55
9746;BME280;4912;50.836;12.958;2022-09-09T00:32:52;97445.56;;;17.43;78.14
9746;BME280;4912;50.836;12.958;2022-09-09T00:35:27;97430.75;;;17.48;77.23
9746;BME280;4912;50.836;12.958;2022-09-09T00:38:02;97436.81;;;17.52;77.80
9746;BME280;4912;50.836;12.958;2022-09-09T00:40:41;97435.53;;;17.53;80.27
9746;BME280;4912;50.836;12.958;2022-09-09T00:43:26;97433.69;;;17.37;81.64
9746;BME280;4912;50.836;12.958;2022-09-09T00:46:09;97430.94;;;17.32;81.56
9746;BME280;4912;50.836;12.958;2022-09-09T00:48:54;97429.47;;;17.25;82.21
9746;BME280;4912;50.836;12.958;2022-09-09T00:51:37;97432.38;;;17.08;84.08
9746;BME280;4912;50.836;12.958;2022-09-09T00:54:28;97434.84;;;16.88;84.91
9746;BME280;4912;50.836;12.958;2022-09-09T00:57:23;97434.13;;;16.82;86.08
9746;BME280;4912;50.836;12.958;2022-09-09T01:00:14;97442.03;;;16.77;86.45
9746;BME280;4912;50.836;12.958;2022-09-09T01:02:59;97445.09;;;16.74;87.51
9746;BME280;4912;50.836;12.958;2022-09-09T01:05:44;97440.03;;;16.72;87.41
9746;BME280;4912;50.836;12.958;2022-09-09T01:08:35;97443.41;;;16.65;87.95
9746;BME280;4912;50.836;12.958;2022-09-09T01:11:17;97439.59;;;16.63;88.45
9746;BME280;4912;50.836;12.958;2022-09-09T01:14:00;97439.06;;;16.64;88.37
9746;BME280;4912;50.836;12.958;2022-09-09T01:16:40;97451.28;;;16.61;88.58
9746;BME280;4912;50.836;12.958;2022-09-09T01:19:18;97456.84;;;16.61;88.97
9746;BME280;4912;50.836;12.958;2022-09-09T01:22:01;97457.63;;;16.56;89.11
9746;BME280;4912;50.836;12.958;2022-09-09T01:24:44;97447.72;;;16.55;89.51
9746;BME280;4912;50.836;12.958;2022-09-09T01:27:59;97446.47;;;16.51;89.59
9746;BME280;4912;50.836;12.958;2022-09-09T01:30:33;97440.94;;;16.45;89.63
9746;BME280;4912;50.836;12.958;2022-09-09T01:33:11;97439.41;;;16.44;89.93
9746;BME280;4912;50.836;12.958;2022-09-09T01:35:48;97442.50;;;16.41;90.23
9746;BME280;4912;50.836;12.958;2022-09-09T01:38:24;97446.56;;;16.39;89.96
9746;BME280;4912;50.836;12.958;2022-09-09T01:40:55;97435.66;;;16.36;88.77
9746;BME280;4912;50.836;12.958;2022-09-09T01:43:48;97435.66;;;16.36;88.77
9746;BME280;4912;50.836;12.958;2022-09-09T01:46:21;97433.09;;;16.38;89.56
9746;BME280;4912;50.836;12.958;2022-09-09T01:48:53;97435.13;;;16.37;87.78
9746;BME280;4912;50.836;12.958;2022-09-09T01:51:25;97434.63;;;16.39;89.05
9746;BME280;4912;50.836;12.958;2022-09-09T01:53:57;97424.50;;;16.36;86.68
9746;BME280;4912;50.836;12.958;2022-09-09T01:56:37;97432.56;;;16.45;85.70
9746;BME280;4912;50.836;12.958;2022-09-09T01:59:28;97425.66;;;16.52;84.75
9746;BME280;4912;50.836;12.958;2022-09-09T02:02:10;97431.97;;;16.63;83.33
9746;BME280;4912;50.836;12.958;2022-09-09T02:04:49;97429.59;;;16.73;82.51
9746;BME280;4912;50.836;12.958;2022-09-09T02:07:38;97423.00;;;16.76;81.66
9746;BME280;4912;50.836;12.958;2022-09-09T02:10:24;97426.97;;;16.86;82.59
9746;BME280;4912;50.836;12.958;2022-09-09T02:13:13;97432.56;;;16.86;81.22
9746;BME280;4912;50.836;12.958;2022-09-09T02:15:52;97436.31;;;16.94;81.93
9746;BME280;4912;50.836;12.958;2022-09-09T02:18:26;97437.59;;;16.93;80.71
9746;BME280;4912;50.836;12.958;2022-09-09T02:20:59;97437.34;;;16.91;79.83
9746;BME280;4912;50.836;12.958;2022-09-09T02:23:31;97429.72;;;16.92;80.91
9746;BME280;4912;50.836;12.958;2022-09-09T02:26:08;97434.81;;;16.93;81.78
9746;BME280;4912;50.836;12.958;2022-09-09T02:28:50;97431.25;;;16.93;84.17
9746;BME280;4912;50.836;12.958;2022-09-09T02:31:25;97436.03;;;16.98;81.38
9746;BME280;4912;50.836;12.958;2022-09-09T02:34:02;97431.72;;;16.97;83.20
9746;BME280;4912;50.836;12.958;2022-09-09T02:36:34;97436.38;;;16.89;84.27
9746;BME280;4912;50.836;12.958;2022-09-09T02:39:08;97434.38;;;16.84;84.57
9746;BME280;4912;50.836;12.958;2022-09-09T02:41:41;97427.06;;;16.75;83.58
9746;BME280;4912;50.836;12.958;2022-09-09T02:44:12;97437.00;;;16.70;84.62
9746;BME280;4912;50.836;12.958;2022-09-09T02:47:08;97433.44;;;16.70;85.61
9746;BME280;4912;50.836;12.958;2022-09-09T02:49:56;97430.69;;;16.64;86.70
9746;BME280;4912;50.836;12.958;2022-09-09T02:52:36;97424.34;;;16.64;86.75
9746;BME280;4912;50.836;12.958;2022-09-09T02:55:18;97428.41;;;16.57;87.54
9746;BME280;4912;50.836;12.958;2022-09-09T02:57:55;97431.22;;;16.57;87.59
9746;BME280;4912;50.836;12.958;2022-09-09T03:00:28;97430.78;;;16.48;88.51
9746;BME280;4912;50.836;12.958;2022-09-09T03:03:04;97424.72;;;16.38;88.66
9746;BME280;4912;50.836;12.958;2022-09-09T03:05:37;97430.38;;;16.27;89.00
9746;BME280;4912;50.836;12.958;2022-09-09T03:08:10;97425.84;;;16.18;89.01
9746;BME280;4912;50.836;12.958;2022-09-09T03:10:42;97422.06;;;16.16;88.65
9746;BME280;4912;50.836;12.958;2022-09-09T03:13:14;97424.59;;;16.19;86.40
9746;BME280;4912;50.836;12.958;2022-09-09T03:15:47;97424.06;;;16.21;87.71
9746;BME280;4912;50.836;12.958;2022-09-09T03:18:22;97428.63;;;16.24;87.49
9746;BME280;4912;50.836;12.958;2022-09-09T03:20:55;97423.78;;;16.30;84.04
9746;BME280;4912;50.836;12.958;2022-09-09T03:23:27;97424.22;;;16.39;83.15
9746;BME280;4912;50.836;12.958;2022-09-09T03:26:01;97427.47;;;16.44;82.66
9746;BME280;4912;50.836;12.958;2022-09-09T03:28:40;97424.69;;;16.49;81.54
9746;BME280;4912;50.836;12.958;2022-09-09T03:31:14;97418.53;;;16.56;81.56
9746;BME280;4912;50.836;12.958;2022-09-09T03:33:48;97427.66;;;16.57;80.80
9746;BME280;4912;50.836;12.958;2022-09-09T03:36:20;97428.69;;;16.59;80.33
9746;BME280;4912;50.836;12.958;2022-09-09T03:38:50;97427.09;;;16.69;80.37
9746;BME280;4912;50.836;12.958;2022-09-09T03:41:21;97426.81;;;16.73;80.54
9746;BME280;4912;50.836;12.958;2022-09-09T03:43:53;97428.28;;;16.79;80.85
9746;BME280;4912;50.836;12.958;2022-09-09T03:46:26;97427.06;;;16.75;84.22
9746;BME280;4912;50.836;12.958;2022-09-09T03:48:59;97424.78;;;16.73;82.26
9746;BME280;4912;50.836;12.958;2022-09-09T03:51:31;97425.53;;;16.74;81.59
9746;BME280;4912;50.836;12.958;2022-09-09T03:54:05;97432.19;;;16.71;82.22
9746;BME280;4912;50.836;12.958;2022-09-09T03:56:37;97433.44;;;16.70;80.64
9746;BME280;4912;50.836;12.958;2022-09-09T03:59:10;97432.94;;;16.71;80.24
9746;BME280;4912;50.836;12.958;2022-09-09T04:01:41;97426.03;;;16.78;80.40
9746;BME280;4912;50.836;12.958;2022-09-09T04:04:15;97428.13;;;16.72;82.99
9746;BME280;4912;50.836;12.958;2022-09-09T04:06:47;97419.53;;;16.59;84.09
9746;BME280;4912;50.836;12.958;2022-09-09T04:09:17;97431.97;;;16.58;83.89
9746;BME280;4912;50.836;12.958;2022-09-09T04:11:49;97433.25;;;16.57;85.64
9746;BME280;4912;50.836;12.958;2022-09-09T04:14:20;97427.94;;;16.53;85.73
9746;BME280;4912;50.836;12.958;2022-09-09T04:16:54;97419.09;;;16.44;87.28
9746;BME280;4912;50.836;12.958;2022-09-09T04:19:29;97422.69;;;16.38;85.55
9746;BME280;4912;50.836;12.958;2022-09-09T04:21:59;97417.94;;;16.28;88.42
9746;BME280;4912;50.836;12.958;2022-09-09T04:24:29;97421.31;;;16.10;89.84
9746;BME280;4912;50.836;12.958;2022-09-09T04:26:59;97417.06;;;15.97;91.19
9746;BME280;4912;50.836;12.958;2022-09-09T04:29:32;97422.41;;;15.95;91.94
9746;BME280;4912;50.836;12.958;2022-09-09T04:32:02;97417.31;;;16.00;92.40
9746;BME280;4912;50.836;12.958;2022-09-09T04:34:35;97415.25;;;16.06;92.45
9746;BME280;4912;50.836;12.958;2022-09-09T04:37:06;97421.31;;;16.10;92.58
9746;BME280;4912;50.836;12.958;2022-09-09T04:39:37;97426.41;;;16.11;92.12
9746;BME280;4912;50.836;12.958;2022-09-09T04:42:08;97437.53;;;16.17;91.60
9746;BME280;4912;50.836;12.958;2022-09-09T04:44:41;97437.28;;;16.15;89.35
9746;BME280;4912;50.836;12.958;2022-09-09T04:47:12;97433.72;;;16.14;89.46
9746;BME280;4912;50.836;12.958;2022-09-09T04:49:44;97425.34;;;16.14;89.96
9746;BME280;4912;50.836;12.958;2022-09-09T04:52:14;97428.94;;;16.09;90.19
9746;BME280;4912;50.836;12.958;2022-09-09T04:54:45;97433.47;;;16.18;90.53
9746;BME280;4912;50.836;12.958;2022-09-09T04:57:15;97432.97;;;16.19;90.78
9746;BME280;4912;50.836;12.958;2022-09-09T04:59:46;97434.97;;;16.24;89.67
9746;BME280;4912;50.836;12.958;2022-09-09T05:02:17;97439.00;;;16.29;88.63
9746;BME280;4912;50.836;12.958;2022-09-09T05:04:50;97446.06;;;16.35;89.49
9746;BME280;4912;50.836;12.958;2022-09-09T05:07:20;97448.34;;;16.37;89.29
9746;BME280;4912;50.836;12.958;2022-09-09T05:09:50;97441.47;;;16.38;87.35
9746;BME280;4912;50.836;12.958;2022-09-09T05:12:21;97440.97;;;16.39;88.87
9746;BME280;4912;50.836;12.958;2022-09-09T05:14:52;97444.75;;;16.48;88.89
9746;BME280;4912;50.836;12.958;2022-09-09T05:17:23;97442.94;;;16.50;87.73
9746;BME280;4912;50.836;12.958;2022-09-09T05:19:57;97434.00;;;16.57;88.22
9746;BME280;4912;50.836;12.958;2022-09-09T05:22:29;97443.16;;;16.58;87.43
9746;BME280;4912;50.836;12.958;2022-09-09T05:25:02;97442.88;;;16.61;87.11
9746;BME280;4912;50.836;12.958;2022-09-09T05:27:33;97448.94;;;16.71;86.61
9746;BME280;4912;50.836;12.958;2022-09-09T05:30:05;97453.69;;;16.82;85.76
9746;BME280;4912;50.836;12.958;2022-09-09T05:32:36;97445.47;;;16.95;83.64
9746;BME280;4912;50.836;12.958;2022-09-09T05:35:10;97453.50;;;17.04;83.36
9746;BME280;4912;50.836;12.958;2022-09-09T05:37:41;97451.16;;;17.13;82.21
9746;BME280;4912;50.836;12.958;2022-09-09T05:40:13;97447.56;;;17.18;83.18
9746;BME280;4912;50.836;12.958;2022-09-09T05:42:43;97451.88;;;17.19;83.24
9746;BME280;4912;50.836;12.958;2022-09-09T05:45:14;97457.22;;;17.17;84.42
9746;BME280;4912;50.836;12.958;2022-09-09T05:47:44;97450.03;;;17.28;82.54
9746;BME280;4912;50.836;12.958;2022-09-09T05:50:17;97447.88;;;17.39;81.32
9746;BME280;4912;50.836;12.958;2022-09-09T05:52:50;97449.53;;;17.53;83.78
9746;BME280;4912;50.836;12.958;2022-09-09T05:55:24;97452.75;;;17.63;81.30
9746;BME280;4912;50.836;12.958;2022-09-09T05:57:54;97453.41;;;17.75;83.00
9746;BME280;4912;50.836;12.958;2022-09-09T06:00:25;97457.19;;;17.77;81.96
9746;BME280;4912;50.836;12.958;2022-09-09T06:02:56;97458.13;;;17.85;82.95
9746;BME280;4912;50.836;12.958;2022-09-09T06:05:29;97465.16;;;17.92;83.21
9746;BME280;4912;50.836;12.958;2022-09-09T06:08:01;97464.59;;;17.99;82.61
9746;BME280;4912;50.836;12.958;2022-09-09T06:10:31;97465.16;;;18.16;80.45
9746;BME280;4912;50.836;12.958;2022-09-09T06:13:02;97458.81;;;18.34;78.60
9746;BME280;4912;50.836;12.958;2022-09-09T06:15:32;97466.19;;;18.56;77.23
9746;BME280;4912;50.836;12.958;2022-09-09T06:18:03;97463.22;;;18.67;76.77
9746;BME280;4912;50.836;12.958;2022-09-09T06:20:36;97466.41;;;18.77;76.80
9746;BME280;4912;50.836;12.958;2022-09-09T06:23:06;97471.84;;;18.88;75.15
9746;BME280;4912;50.836;12.958;2022-09-09T06:25:36;97466.97;;;19.07;75.61
9746;BME280;4912;50.836;12.958;2022-09-09T06:28:08;97470.47;;;19.27;75.27
9746;BME280;4912;50.836;12.958;2022-09-09T06:30:38;97463.59;;;19.41;75.01
9746;BME280;4912;50.836;12.958;2022-09-09T06:33:08;97470.91;;;19.49;74.60
9746;BME280;4912;50.836;12.958;2022-09-09T06:35:41;97472.63;;;19.52;74.16
9746;BME280;4912;50.836;12.958;2022-09-09T06:38:11;97465.50;;;19.51;74.79
9746;BME280;4912;50.836;12.958;2022-09-09T06:40:42;97461.50;;;19.47;74.21
9746;BME280;4912;50.836;12.958;2022-09-09T06:43:15;97465.81;;;19.48;74.64
9746;BME280;4912;50.836;12.958;2022-09-09T06:45:56;97462.03;;;19.45;74.33
9746;BME280;4912;50.836;12.958;2022-09-09T06:48:27;97457.56;;;19.37;72.96
9746;BME280;4912;50.836;12.958;2022-09-09T06:51:04;97460.66;;;19.33;70.83
9746;BME280;4912;50.836;12.958;2022-09-09T06:53:39;97463.06;;;19.42;71.81
9746;BME280;4912;50.836;12.958;2022-09-09T06:56:19;97465.28;;;19.49;70.70
9746;BME280;4912;50.836;12.958;2022-09-09T06:58:53;97470.38;;;19.64;70.47
9746;BME280;4912;50.836;12.958;2022-09-09T07:01:30;97464.03;;;19.77;70.19
9746;BME280;4912;50.836;12.958;2022-09-09T07:04:05;97472.00;;;19.73;69.45
9746;BME280;4912;50.836;12.958;2022-09-09T07:06:41;97469.50;;;19.69;69.49
9746;BME280;4912;50.836;12.958;2022-09-09T07:09:20;97468.53;;;19.80;69.57
9746;BME280;4912;50.836;12.958;2022-09-09T07:11:53;97470.19;;;19.88;69.40
9746;BME280;4912;50.836;12.958;2022-09-09T07:14:25;97475.03;;;19.88;68.56
9746;BME280;4912;50.836;12.958;2022-09-09T07:16:59;97470.72;;;20.00;68.04
9746;BME280;4912;50.836;12.958;2022-09-09T07:19:35;97475.81;;;20.01;67.97
9746;BME280;4912;50.836;12.958;2022-09-09T07:22:08;97468.56;;;20.06;68.22
9746;BME280;4912;50.836;12.958;2022-09-09T07:24:39;97474.59;;;20.10;68.89
9746;BME280;4912;50.836;12.958;2022-09-09T07:27:10;97481.09;;;20.05;67.94
9746;BME280;4912;50.836;12.958;2022-09-09T07:29:40;97487.47;;;20.06;68.31
9746;BME280;4912;50.836;12.958;2022-09-09T07:32:12;97482.38;;;20.04;67.75
9746;BME280;4912;50.836;12.958;2022-09-09T07:34:44;97484.44;;;20.17;68.03
9746;BME280;4912;50.836;12.958;2022-09-09T07:37:17;97477.41;;;20.23;67.01
9746;BME280;4912;50.836;12.958;2022-09-09T07:39:47;97481.63;;;20.43;66.72
9746;BME280;4912;50.836;12.958;2022-09-09T07:42:18;97482.09;;;20.68;66.55
9746;BME280;4912;50.836;12.958;2022-09-09T07:44:49;97481.25;;;20.73;66.06
9746;BME280;4912;50.836;12.958;2022-09-09T07:47:22;97488.38;;;20.74;65.10
9746;BME280;4912;50.836;12.958;2022-09-09T07:49:52;97491.28;;;20.81;65.77
9746;BME280;4912;50.836;12.958;2022-09-09T07:52:30;97491.94;;;20.74;65.22
9746;BME280;4912;50.836;12.958;2022-09-09T07:55:04;97485.41;;;20.93;66.04
9746;BME280;4912;50.836;12.958;2022-09-09T07:57:36;97491.81;;;21.14;66.17
9746;BME280;4912;50.836;12.958;2022-09-09T08:00:09;97484.44;;;21.45;65.65
9746;BME280;4912;50.836;12.958;2022-09-09T08:02:46;97492.34;;;22.60;63.16
9746;BME280;4912;50.836;12.958;2022-09-09T08:05:17;97489.44;;;23.62;60.78
9746;BME280;4912;50.836;12.958;2022-09-09T08:07:52;97485.28;;;23.71;59.77
9746;BME280;4912;50.836;12.958;2022-09-09T08:10:22;97490.38;;;23.72;58.91
9746;BME280;4912;50.836;12.958;2022-09-09T08:12:54;97494.44;;;23.33;56.86
9746;BME280;4912;50.836;12.958;2022-09-09T08:15:43;97494.00;;;22.99;56.99
9746;BME280;4912;50.836;12.958;2022-09-09T08:18:14;97491.75;;;22.90;59.58
9746;BME280;4912;50.836;12.958;2022-09-09T08:20:44;97490.66;;;23.08;58.97
9746;BME280;4912;50.836;12.958;2022-09-09T08:23:17;97493.59;;;23.61;58.63
9746;BME280;4912;50.836;12.958;2022-09-09T08:25:48;97494.28;;;23.39;57.25
9746;BME280;4912;50.836;12.958;2022-09-09T08:28:19;97496.69;;;23.12;57.96
9746;BME280;4912;50.836;12.958;2022-09-09T08:30:49;97496.13;;;23.13;59.21
9746;BME280;4912;50.836;12.958;2022-09-09T08:33:20;97487.31;;;23.24;59.03
9746;BME280;4912;50.836;12.958;2022-09-09T08:35:52;97492.91;;;23.09;58.86
9746;BME280;4912;50.836;12.958;2022-09-09T08:38:26;97485.94;;;23.03;58.96
9746;BME280;4912;50.836;12.958;2022-09-09T08:41:03;97483.88;;;23.11;60.86
9746;BME280;4912;50.836;12.958;2022-09-09T08:43:44;97486.72;;;23.18;59.91
9746;BME280;4912;50.836;12.958;2022-09-09T08:46:25;97491.41;;;23.08;57.73
9746;BME280;4912;50.836;12.958;2022-09-09T08:49:06;97488.66;;;23.46;56.86
9746;BME280;4912;50.836;12.958;2022-09-09T08:51:49;97490.75;;;26.51;48.17
9746;BME280;4912;50.836;12.958;2022-09-09T08:54:22;97488.97;;;28.45;42.09
9746;BME280;4912;50.836;12.958;2022-09-09T08:57:19;97487.97;;;29.79;39.32
9746;BME280;4912;50.836;12.958;2022-09-09T08:59:55;97496.59;;;29.60;39.06
9746;BME280;4912;50.836;12.958;2022-09-09T09:02:32;97493.13;;;30.02;38.19
9746;BME280;4912;50.836;12.958;2022-09-09T09:05:17;97479.81;;;31.36;35.31
9746;BME280;4912;50.836;12.958;2022-09-09T09:08:00;97482.09;;;31.84;34.34
9746;BME280;4912;50.836;12.958;2022-09-09T09:10:45;97481.84;;;32.52;33.25
9746;BME280;4912;50.836;12.958;2022-09-09T09:13:25;97481.31;;;32.30;31.37
9746;BME280;4912;50.836;12.958;2022-09-09T09:16:06;97473.97;;;31.46;32.50
9746;BME280;4912;50.836;12.958;2022-09-09T09:18:44;97472.13;;;31.97;32.10
9746;BME280;4912;50.836;12.958;2022-09-09T09:21:16;97469.72;;;32.40;31.87
9746;BME280;4912;50.836;12.958;2022-09-09T09:23:55;97489.69;;;32.15;30.79
9746;BME280;4912;50.836;12.958;2022-09-09T09:26:35;97475.00;;;32.69;30.27
9746;BME280;4912;50.836;12.958;2022-09-09T09:29:11;97479.13;;;32.91;30.04
9746;BME280;4912;50.836;12.958;2022-09-09T09:31:45;97484.53;;;33.49;29.94
9746;BME280;4912;50.836;12.958;2022-09-09T09:34:18;97467.13;;;32.95;30.03
9746;BME280;4912;50.836;12.958;2022-09-09T09:36:54;97465.09;;;32.35;31.66
9746;BME280;4912;50.836;12.958;2022-09-09T09:39:30;97474.50;;;30.65;34.54
9746;BME280;4912;50.836;12.958;2022-09-09T09:42:27;97481.03;;;28.82;36.43
9746;BME280;4912;50.836;12.958;2022-09-09T09:45:07;97480.44;;;27.43;39.12
9746;BME280;4912;50.836;12.958;2022-09-09T09:47:39;97472.19;;;27.38;39.72
9746;BME280;4912;50.836;12.958;2022-09-09T09:50:19;97472.38;;;27.13;40.58
9746;BME280;4912;50.836;12.958;2022-09-09T09:52:55;97467.97;;;28.69;38.00
9746;BME280;4912;50.836;12.958;2022-09-09T09:55:28;97465.44;;;28.83;38.48
9746;BME280;4912;50.836;12.958;2022-09-09T09:58:06;97462.84;;;29.56;37.73
9746;BME280;4912;50.836;12.958;2022-09-09T10:00:47;97458.56;;;28.38;39.75
9746;BME280;4912;50.836;12.958;2022-09-09T10:03:25;97457.66;;;27.34;41.18
9746;BME280;4912;50.836;12.958;2022-09-09T10:05:58;97469.53;;;26.52;44.04
9746;BME280;4912;50.836;12.958;2022-09-09T10:08:28;97465.50;;;25.86;45.82
9746;BME280;4912;50.836;12.958;2022-09-09T10:11:16;97468.88;;;26.61;45.30
9746;BME280;4912;50.836;12.958;2022-09-09T10:14:11;97460.66;;;26.65;42.70
9746;BME280;4912;50.836;12.958;2022-09-09T10:16:59;97466.59;;;28.13;38.22
9746;BME280;4912;50.836;12.958;2022-09-09T10:19:37;97466.28;;;27.53;36.60
9746;BME280;4912;50.836;12.958;2022-09-09T10:22:21;97462.28;;;28.88;33.94
9746;BME280;4912;50.836;12.958;2022-09-09T10:25:19;97457.09;;;29.25;33.39
9746;BME280;4912;50.836;12.958;2022-09-09T10:31:08;97464.72;;;30.25;32.10
9746;BME280;4912;50.836;12.958;2022-09-09T10:33:50;97455.06;;;30.51;31.64
9746;BME280;4912;50.836;12.958;2022-09-09T10:36:23;97444.72;;;31.12;30.49
9746;BME280;4912;50.836;12.958;2022-09-09T10:38:59;97446.22;;;31.25;29.21
9746;BME280;4912;50.836;12.958;2022-09-09T10:41:40;97440.91;;;31.89;30.59
9746;BME280;4912;50.836;12.958;2022-09-09T10:44:23;97441.88;;;32.54;28.44
9746;BME280;4912;50.836;12.958;2022-09-09T10:47:17;97457.19;;;32.10;28.28
9746;BME280;4912;50.836;12.958;2022-09-09T10:50:23;97445.66;;;31.85;29.13
9746;BME280;4912;50.836;12.958;2022-09-09T10:53:36;97448.88;;;32.51;28.46
9746;BME280;4912;50.836;12.958;2022-09-09T10:56:18;97449.66;;;31.68;29.64
9746;BME280;4912;50.836;12.958;2022-09-09T10:58:53;97441.28;;;31.95;29.68
9746;BME280;4912;50.836;12.958;2022-09-09T11:01:29;97451.88;;;31.02;30.57
9746;BME280;4912;50.836;12.958;2022-09-09T11:04:09;97452.13;;;29.26;32.75
9746;BME280;4912;50.836;12.958;2022-09-09T11:06:48;97447.50;;;27.77;35.84
9746;BME280;4912;50.836;12.958;2022-09-09T11:09:23;97448.50;;;28.18;35.97
9746;BME280;4912;50.836;12.958;2022-09-09T11:11:58;97446.84;;;30.03;33.31
9746;BME280;4912;50.836;12.958;2022-09-09T11:14:34;97423.13;;;31.33;31.19
9746;BME280;4912;50.836;12.958;2022-09-09T11:17:10;97425.97;;;32.76;29.61
9746;BME280;4912;50.836;12.958;2022-09-09T11:19:46;97416.94;;;33.60;28.69
9746;BME280;4912;50.836;12.958;2022-09-09T11:22:23;97428.75;;;34.93;26.65
9746;BME280;4912;50.836;12.958;2022-09-09T11:25:01;97420.97;;;35.11;25.92
9746;BME280;4912;50.836;12.958;2022-09-09T11:27:38;97415.38;;;35.45;25.38
9746;BME280;4912;50.836;12.958;2022-09-09T11:30:18;97420.63;;;35.97;24.70
9746;BME280;4912;50.836;12.958;2022-09-09T11:33:34;97417.03;;;37.01;23.80
9746;BME280;4912;50.836;12.958;2022-09-09T11:39:51;97437.25;;;33.50;27.72
9746;BME280;4912;50.836;12.958;2022-09-09T11:42:30;97427.06;;;34.16;26.73
9746;BME280;4912;50.836;12.958;2022-09-09T11:45:09;97427.59;;;35.29;25.75
9746;BME280;4912;50.836;12.958;2022-09-09T11:47:54;97437.31;;;33.25;26.33
9746;BME280;4912;50.836;12.958;2022-09-09T11:50:31;97438.94;;;31.68;29.39
9746;BME280;4912;50.836;12.958;2022-09-09T11:53:18;97442.69;;;29.95;31.62
9746;BME280;4912;50.836;12.958;2022-09-09T11:56:07;97424.81;;;32.81;29.17
9746;BME280;4912;50.836;12.958;2022-09-09T11:58:54;97434.22;;;33.74;27.70
9746;BME280;4912;50.836;12.958;2022-09-09T12:01:28;97429.25;;;34.31;26.81
9746;BME280;4912;50.836;12.958;2022-09-09T12:07:20;97428.59;;;31.63;29.82
9746;BME280;4912;50.836;12.958;2022-09-09T12:10:02;97432.78;;;32.09;29.76
9746;BME280;4912;50.836;12.958;2022-09-09T12:12:35;97421.66;;;32.89;28.58
9746;BME280;4912;50.836;12.958;2022-09-09T12:15:19;97421.19;;;34.27;27.50
9746;BME280;4912;50.836;12.958;2022-09-09T12:17:57;97412.38;;;33.55;28.31
9746;BME280;4912;50.836;12.958;2022-09-09T12:20:34;97422.34;;;32.14;29.85
9746;BME280;4912;50.836;12.958;2022-09-09T12:23:25;97428.81;;;29.80;33.76
9746;BME280;4912;50.836;12.958;2022-09-09T12:26:21;97426.44;;;28.95;36.67
9746;BME280;4912;50.836;12.958;2022-09-09T12:29:06;97421.66;;;28.11;36.86
9746;BME280;4912;50.836;12.958;2022-09-09T12:31:47;97411.34;;;29.85;34.68
9746;BME280;4912;50.836;12.958;2022-09-09T12:34:27;97399.66;;;31.69;30.77
9746;BME280;4912;50.836;12.958;2022-09-09T12:37:05;97394.78;;;31.60;31.84
9746;BME280;4912;50.836;12.958;2022-09-09T12:39:45;97398.34;;;33.47;28.36
9746;BME280;4912;50.836;12.958;2022-09-09T12:42:22;97392.53;;;34.43;26.31
9746;BME280;4912;50.836;12.958;2022-09-09T12:44:56;97393.53;;;36.38;24.25
9746;BME280;4912;50.836;12.958;2022-09-09T12:47:37;97388.41;;;34.91;25.46
9746;BME280;4912;50.836;12.958;2022-09-09T12:50:18;97388.78;;;33.56;26.84
9746;BME280;4912;50.836;12.958;2022-09-09T12:52:52;97380.28;;;31.93;29.22
9746;BME280;4912;50.836;12.958;2022-09-09T12:55:28;97382.59;;;31.13;30.45
9746;BME280;4912;50.836;12.958;2022-09-09T12:58:05;97381.78;;;30.44;31.78
9746;BME280;4912;50.836;12.958;2022-09-09T13:00:36;97378.81;;;30.21;32.13
9746;BME280;4912;50.836;12.958;2022-09-09T13:03:17;97384.63;;;29.28;33.45
9746;BME280;4912;50.836;12.958;2022-09-09T13:05:50;97379.19;;;28.32;34.01
9746;BME280;4912;50.836;12.958;2022-09-09T13:08:20;97372.59;;;29.92;31.71
9746;BME280;4912;50.836;12.958;2022-09-09T13:10:54;97375.84;;;33.03;27.20
9746;BME280;4912;50.836;12.958;2022-09-09T13:13:34;97372.06;;;34.21;25.76
9746;BME280;4912;50.836;12.958;2022-09-09T13:16:15;97385.63;;;33.11;26.51
9746;BME280;4912;50.836;12.958;2022-09-09T13:18:50;97377.88;;;30.61;29.28
9746;BME280;4912;50.836;12.958;2022-09-09T13:21:31;97377.25;;;29.35;30.63
9746;BME280;4912;50.836;12.958;2022-09-09T13:24:03;97391.75;;;28.29;31.83
9746;BME280;4912;50.836;12.958;2022-09-09T13:26:34;97384.41;;;27.97;32.78
9746;BME280;4912;50.836;12.958;2022-09-09T13:29:18;97401.56;;;27.24;34.43
9746;BME280;4912;50.836;12.958;2022-09-09T13:31:50;97395.22;;;26.63;35.46
9746;BME280;4912;50.836;12.958;2022-09-09T13:34:28;97391.44;;;26.77;35.96
9746;BME280;4912;50.836;12.958;2022-09-09T13:37:00;97396.13;;;27.09;35.77
9746;BME280;4912;50.836;12.958;2022-09-09T13:39:33;97378.81;;;27.70;35.72
9746;BME280;4912;50.836;12.958;2022-09-09T13:42:18;97371.56;;;30.74;31.30
9746;BME280;4912;50.836;12.958;2022-09-09T13:44:55;97364.63;;;32.81;27.73
9746;BME280;4912;50.836;12.958;2022-09-09T13:47:30;97369.22;;;33.66;26.18
9746;BME280;4912;50.836;12.958;2022-09-09T13:50:18;97367.47;;;34.16;25.37
9746;BME280;4912;50.836;12.958;2022-09-09T13:52:51;97369.72;;;35.21;25.21
9746;BME280;4912;50.836;12.958;2022-09-09T13:55:26;97371.19;;;34.32;25.71
9746;BME280;4912;50.836;12.958;2022-09-09T13:57:59;97360.41;;;34.91;25.44
9746;BME280;4912;50.836;12.958;2022-09-09T14:00:34;97349.53;;;36.02;24.19
9746;BME280;4912;50.836;12.958;2022-09-09T14:03:04;97355.16;;;35.82;23.20
9746;BME280;4912;50.836;12.958;2022-09-09T14:05:34;97349.06;;;34.80;24.14
9746;BME280;4912;50.836;12.958;2022-09-09T14:08:06;97345.28;;;35.07;24.37
9746;BME280;4912;50.836;12.958;2022-09-09T14:10:37;97355.75;;;35.47;24.07